createdAt,value
2022-11-03T00:00:58.139Z,11.43
2022-11-03T00:03:37.482Z,11.48
2022-11-03T00:06:14.206Z,11.50
2022-11-03T00:09:22.719Z,11.46
2022-11-03T00:11:55.991Z,11.48
2022-11-03T00:14:36.512Z,11.52
2022-11-03T00:17:28.191Z,11.59
2022-11-03T00:20:13.157Z,11.62
2022-11-03T00:23:16.549Z,11.68
2022-11-03T00:25:50.455Z,11.66
2022-11-03T00:28:25.105Z,11.68
2022-11-03T00:30:57.859Z,11.61
2022-11-03T00:33:43.527Z,11.64
2022-11-03T00:36:22.671Z,11.62
2022-11-03T00:39:25.517Z,11.63
2022-11-03T00:42:08.702Z,11.70
2022-11-03T00:44:58.510Z,11.69
2022-11-03T00:48:31.400Z,11.75
2022-11-03T00:51:18.237Z,11.66
2022-11-03T00:54:15.374Z,11.65
2022-11-03T00:56:48.359Z,11.56
2022-11-03T00:59:16.283Z,11.51
2022-11-03T01:01:48.106Z,11.53
2022-11-03T01:04:42.095Z,11.53
2022-11-03T01:07:26.668Z,11.55
2022-11-03T01:10:09.056Z,11.44
2022-11-03T01:12:38.138Z,11.33
2022-11-03T01:15:06.376Z,11.43
2022-11-03T01:17:33.953Z,11.34
2022-11-03T01:20:01.132Z,11.35
2022-11-03T01:22:33.152Z,11.32
2022-11-03T01:25:01.123Z,11.25
2022-11-03T01:27:31.044Z,11.24
2022-11-03T01:29:58.273Z,11.23
2022-11-03T01:32:25.860Z,11.18
2022-11-03T01:34:52.986Z,11.20
2022-11-03T01:37:21.206Z,11.15
2022-11-03T01:39:48.480Z,11.10
2022-11-03T01:42:16.472Z,11.08
2022-11-03T01:44:48.524Z,11.12
2022-11-03T01:47:28.214Z,11.09
2022-11-03T01:50:05.665Z,11.04
2022-11-03T01:52:43.490Z,11.10
2022-11-03T01:55:37.501Z,11.14
2022-11-03T01:58:16.914Z,11.08
2022-11-03T02:00:54.175Z,11.05
2022-11-03T02:03:53.701Z,11.12
2022-11-03T02:06:48.371Z,11.00
2022-11-03T02:09:17.193Z,10.94
2022-11-03T02:12:15.916Z,10.97
2022-11-03T02:15:02.943Z,10.97
2022-11-03T02:17:39.271Z,10.97
2022-11-03T02:20:25.922Z,10.92
2022-11-03T02:23:13.201Z,11.05
2022-11-03T02:26:00.097Z,11.00
2022-11-03T02:28:38.461Z,10.89
2022-11-03T02:31:41.665Z,10.86
2022-11-03T02:34:27.178Z,10.77
2022-11-03T02:36:58.070Z,10.88
2022-11-03T02:39:46.995Z,10.84
2022-11-03T02:42:19.201Z,10.89
2022-11-03T02:44:49.000Z,10.83
2022-11-03T02:47:18.512Z,10.95
2022-11-03T02:49:52.117Z,11.04
2022-11-03T02:52:50.667Z,11.05
2022-11-03T02:56:12.233Z,10.96
2022-11-03T03:02:40.331Z,11.01
2022-11-03T03:05:59.395Z,10.93
2022-11-03T03:09:15.943Z,10.96
2022-11-03T03:12:16.491Z,10.91
2022-11-03T03:15:23.460Z,10.91
2022-11-03T03:18:13.068Z,10.86
2022-11-03T03:20:53.730Z,10.90
2022-11-03T03:26:52.112Z,10.91
2022-11-03T03:29:58.784Z,10.87
2022-11-03T03:32:55.908Z,10.78
2022-11-03T03:39:40.318Z,10.95
2022-11-03T03:42:14.458Z,10.94
2022-11-03T03:44:55.438Z,10.96
2022-11-03T03:50:24.080Z,11.02
2022-11-03T03:53:11.849Z,10.97
2022-11-03T03:55:55.617Z,10.93
2022-11-03T03:58:44.475Z,10.97
2022-11-03T04:01:23.069Z,10.94
2022-11-03T04:04:00.858Z,10.99
2022-11-03T04:06:38.694Z,10.92
2022-11-03T04:09:12.391Z,10.92
2022-11-03T04:12:01.398Z,10.95
2022-11-03T04:14:50.142Z,11.00
2022-11-03T04:17:43.853Z,11.03
2022-11-03T04:20:35.301Z,11.03
2022-11-03T04:23:36.084Z,11.01
2022-11-03T04:26:19.024Z,10.88
2022-11-03T04:28:54.120Z,10.88
2022-11-03T04:32:14.591Z,10.86
2022-11-03T04:34:54.478Z,10.88
2022-11-03T04:38:45.502Z,10.79
2022-11-03T04:41:43.621Z,10.83
2022-11-03T04:44:31.811Z,10.82
2022-11-03T04:47:07.374Z,10.78
2022-11-03T04:49:58.409Z,10.62
2022-11-03T04:53:03.817Z,10.68
2022-11-03T04:56:26.736Z,10.63
2022-11-03T05:02:33.651Z,10.60
2022-11-03T05:05:18.161Z,10.59
2022-11-03T05:08:09.956Z,10.60
2022-11-03T05:10:47.506Z,10.66
2022-11-03T05:13:38.943Z,10.64
2022-11-03T05:16:43.478Z,10.69
2022-11-03T05:19:25.523Z,10.57
2022-11-03T05:22:11.257Z,10.62
2022-11-03T05:24:45.456Z,10.56
2022-11-03T05:27:34.364Z,10.52
2022-11-03T05:30:32.597Z,10.65
2022-11-03T05:33:43.271Z,10.58
2022-11-03T05:41:17.100Z,10.78
2022-11-03T05:44:33.513Z,10.91
2022-11-03T05:47:44.079Z,10.83
2022-11-03T05:51:26.661Z,10.82
2022-11-03T05:54:37.553Z,10.79
2022-11-03T05:57:22.703Z,10.84
2022-11-03T06:01:17.092Z,10.90
2022-11-03T06:04:23.329Z,11.10
2022-11-03T06:10:39.822Z,11.07
2022-11-03T06:13:43.160Z,11.04
2022-11-03T06:17:10.338Z,11.15
2022-11-03T06:20:09.293Z,11.19
2022-11-03T06:23:31.994Z,11.15
2022-11-03T06:26:47.426Z,11.10
2022-11-03T06:30:25.103Z,10.89
2022-11-03T06:40:49.870Z,10.70
2022-11-03T06:43:59.842Z,10.78
2022-11-03T06:46:45.190Z,10.89
2022-11-03T06:49:46.430Z,10.94
2022-11-03T06:52:46.365Z,11.02
2022-11-03T06:55:31.481Z,11.10
2022-11-03T06:58:51.785Z,11.15
2022-11-03T07:01:40.229Z,11.13
2022-11-03T07:04:52.609Z,11.03
2022-11-03T07:07:54.594Z,11.06
2022-11-03T07:10:56.191Z,11.10
2022-11-03T07:13:37.690Z,11.16
2022-11-03T07:16:42.492Z,11.30
2022-11-03T07:19:57.907Z,11.46
2022-11-03T07:22:58.338Z,11.29
2022-11-03T07:25:29.352Z,11.42
2022-11-03T07:28:02.466Z,11.43
2022-11-03T07:30:43.172Z,11.26
2022-11-03T07:33:34.961Z,11.36
2022-11-03T07:36:55.667Z,11.28
2022-11-03T07:39:45.502Z,11.33
2022-11-03T07:42:46.224Z,11.28
2022-11-03T07:45:59.356Z,11.34
2022-11-03T07:48:59.955Z,11.46
2022-11-03T07:52:06.291Z,11.35
2022-11-03T07:54:41.187Z,11.18
2022-11-03T07:57:23.436Z,11.27
2022-11-03T08:00:32.190Z,11.11
2022-11-03T08:03:02.366Z,11.03
2022-11-03T08:05:33.552Z,11.01
2022-11-03T08:08:01.362Z,11.11
2022-11-03T08:10:32.187Z,11.22
2022-11-03T08:13:06.818Z,11.41
2022-11-03T08:21:42.388Z,11.34
2022-11-03T08:24:28.545Z,11.44
2022-11-03T08:27:59.811Z,11.52
2022-11-03T08:30:49.451Z,11.43
2022-11-03T08:33:44.956Z,11.41
2022-11-03T08:36:13.645Z,11.35
2022-11-03T08:38:41.514Z,11.14
2022-11-03T08:41:09.668Z,11.13
2022-11-03T08:43:53.142Z,10.99
2022-11-03T08:46:24.537Z,11.00
2022-11-03T08:49:09.499Z,11.18
2022-11-03T08:52:31.733Z,11.22
2022-11-03T08:55:44.373Z,11.46
2022-11-03T08:59:19.038Z,11.30
2022-11-03T09:01:54.643Z,11.50
2022-11-03T09:04:58.253Z,11.57
2022-11-03T09:10:54.007Z,11.65
2022-11-03T09:14:02.927Z,11.68
2022-11-03T09:16:45.673Z,11.84
2022-11-03T09:19:41.081Z,11.68
2022-11-03T09:22:23.197Z,11.79
2022-11-03T09:25:13.698Z,11.87
2022-11-03T09:28:38.033Z,11.80
2022-11-03T09:31:05.960Z,11.93
2022-11-03T09:33:38.256Z,11.55
2022-11-03T09:36:07.367Z,11.47
2022-11-03T09:38:44.452Z,11.67
2022-11-03T09:41:28.071Z,11.76
2022-11-03T09:44:03.160Z,11.86
2022-11-03T09:46:32.483Z,11.92
2022-11-03T09:49:00.128Z,12.09
2022-11-03T09:51:28.765Z,12.32
2022-11-03T09:53:59.418Z,12.20
2022-11-03T09:56:27.106Z,12.41
2022-11-03T09:58:54.989Z,12.21
2022-11-03T10:01:24.386Z,11.86
2022-11-03T10:04:03.535Z,11.93
2022-11-03T10:06:32.206Z,12.19
2022-11-03T10:08:59.852Z,12.37
2022-11-03T10:11:27.116Z,12.66
2022-11-03T10:13:56.759Z,12.68
2022-11-03T10:16:27.472Z,12.78
2022-11-03T10:19:03.859Z,12.55
2022-11-03T10:21:38.053Z,12.37
2022-11-03T10:24:05.830Z,12.23
2022-11-03T10:26:45.124Z,11.96
2022-11-03T10:31:54.743Z,11.97
2022-11-03T10:34:39.305Z,12.12
2022-11-03T10:37:23.732Z,12.33
2022-11-03T10:39:56.405Z,11.83
2022-11-03T10:42:28.140Z,11.71
2022-11-03T10:45:19.658Z,11.65
2022-11-03T10:48:07.037Z,11.52
2022-11-03T10:50:34.498Z,11.14
2022-11-03T10:53:01.926Z,11.15
2022-11-03T10:55:51.646Z,11.34
2022-11-03T10:58:32.556Z,11.44
2022-11-03T11:01:44.976Z,11.49
2022-11-03T11:04:28.867Z,11.54
2022-11-03T11:07:23.379Z,11.77
2022-11-03T11:09:58.121Z,11.72
2022-11-03T11:12:25.935Z,11.65
2022-11-03T11:15:01.340Z,11.91
2022-11-03T11:17:37.888Z,11.77
2022-11-03T11:20:39.231Z,11.45
2022-11-03T11:23:28.750Z,11.51
2022-11-03T11:26:09.475Z,11.38
2022-11-03T11:28:41.730Z,11.63
2022-11-03T11:31:30.530Z,11.91
2022-11-03T11:34:21.305Z,12.11
2022-11-03T11:36:57.429Z,12.21
2022-11-03T11:39:27.911Z,12.36
2022-11-03T11:42:09.558Z,12.25
2022-11-03T11:44:40.807Z,12.27
2022-11-03T11:47:23.052Z,12.34
2022-11-03T11:50:24.207Z,12.39
2022-11-03T11:53:08.605Z,12.25
2022-11-03T11:55:54.192Z,12.14
2022-11-03T11:58:43.029Z,11.73
2022-11-03T12:01:32.738Z,11.60
2022-11-03T12:04:08.355Z,11.60
2022-11-03T12:06:40.825Z,11.49
2022-11-03T12:09:12.772Z,11.57
2022-11-03T12:11:56.796Z,11.78
2022-11-03T12:14:31.695Z,11.71
2022-11-03T12:17:19.642Z,11.69
2022-11-03T12:19:50.994Z,11.41
2022-11-03T12:22:28.103Z,11.51
2022-11-03T12:25:01.008Z,11.74
2022-11-03T12:27:31.854Z,11.96
2022-11-03T12:30:04.231Z,12.06
2022-11-03T12:32:35.031Z,12.27
2022-11-03T12:35:15.771Z,12.25
2022-11-03T12:37:45.478Z,12.24
2022-11-03T12:40:14.944Z,11.92
2022-11-03T12:42:42.392Z,11.98
2022-11-03T12:45:14.105Z,12.23
2022-11-03T12:47:43.205Z,12.66
2022-11-03T12:50:10.803Z,12.93
2022-11-03T12:52:38.414Z,13.10
2022-11-03T12:55:08.103Z,13.18
2022-11-03T12:57:38.710Z,13.62
2022-11-03T13:00:12.734Z,14.14
2022-11-03T13:02:42.262Z,14.68
2022-11-03T13:05:10.987Z,14.92
2022-11-03T13:07:44.281Z,15.08
2022-11-03T13:10:13.327Z,15.05
2022-11-03T13:12:41.762Z,15.33
2022-11-03T13:15:13.592Z,15.37
2022-11-03T13:20:41.297Z,15.32
2022-11-03T13:23:13.696Z,15.21
2022-11-03T13:25:43.354Z,15.31
2022-11-03T13:28:13.287Z,14.86
2022-11-03T13:30:42.151Z,14.44
2022-11-03T13:33:11.534Z,14.55
2022-11-03T13:35:42.184Z,14.65
2022-11-03T13:38:14.354Z,14.45
2022-11-03T13:40:57.246Z,14.86
2022-11-03T13:43:31.437Z,14.88
2022-11-03T13:46:11.580Z,14.76
2022-11-03T13:51:39.364Z,15.26
2022-11-03T13:59:52.195Z,14.68
2022-11-03T14:05:12.663Z,14.42
2022-11-03T14:07:44.906Z,14.77
2022-11-03T14:10:21.379Z,15.04
2022-11-03T14:12:49.754Z,15.31
2022-11-03T14:15:21.511Z,15.54
2022-11-03T14:17:52.138Z,15.61
2022-11-03T14:20:22.523Z,15.69
2022-11-03T14:22:53.147Z,15.56
2022-11-03T14:25:24.288Z,15.59
2022-11-03T14:27:52.128Z,15.13
2022-11-03T14:30:21.720Z,14.88
2022-11-03T14:32:49.479Z,14.69
2022-11-03T14:35:17.787Z,14.57
2022-11-03T14:37:46.043Z,14.52
2022-11-03T14:40:35.211Z,14.43
2022-11-03T14:43:03.358Z,14.56
2022-11-03T14:45:31.034Z,14.56
2022-11-03T14:47:58.506Z,14.58
2022-11-03T14:50:26.657Z,14.53
2022-11-03T14:53:03.006Z,14.44
2022-11-03T14:55:33.457Z,14.30
2022-11-03T14:58:02.051Z,14.25
2022-11-03T15:00:31.811Z,14.10
2022-11-03T15:03:02.590Z,13.88
2022-11-03T15:08:35.397Z,13.43
2022-11-03T15:11:17.705Z,13.35
2022-11-03T15:13:52.332Z,13.13
2022-11-03T15:16:25.013Z,12.97
2022-11-03T15:18:58.962Z,12.78
2022-11-03T15:21:36.256Z,12.66
2022-11-03T15:27:14.679Z,12.45
2022-11-03T15:29:44.506Z,12.65
2022-11-03T15:32:20.503Z,12.56
2022-11-03T15:34:57.387Z,12.49
2022-11-03T15:37:27.123Z,12.28
2022-11-03T15:39:59.673Z,12.07
2022-11-03T15:42:28.407Z,12.03
2022-11-03T15:44:57.680Z,11.81
2022-11-03T15:47:26.803Z,11.82
2022-11-03T15:49:54.163Z,11.72
2022-11-03T15:52:23.631Z,11.90
2022-11-03T15:54:51.993Z,11.84
2022-11-03T15:57:22.287Z,11.96
2022-11-03T15:59:55.251Z,12.10
2022-11-03T16:02:50.387Z,12.23
2022-11-03T16:05:25.005Z,12.23
2022-11-03T16:07:53.345Z,12.35
2022-11-03T16:10:27.289Z,12.32
2022-11-03T16:13:00.236Z,12.17
2022-11-03T16:16:01.534Z,11.90
2022-11-03T16:19:06.019Z,12.11
2022-11-03T16:22:00.493Z,12.18
2022-11-03T16:24:35.133Z,12.10
2022-11-03T16:27:12.818Z,11.92
2022-11-03T16:29:40.313Z,11.73
2022-11-03T16:32:22.958Z,11.68
2022-11-03T16:34:58.209Z,11.65
2022-11-03T16:37:30.801Z,11.68
2022-11-03T16:40:02.920Z,11.83
2022-11-03T16:43:03.076Z,11.48
2022-11-03T16:45:37.668Z,11.33
2022-11-03T16:48:07.972Z,11.22
2022-11-03T16:50:40.067Z,11.44
2022-11-03T16:53:18.565Z,11.57
2022-11-03T16:55:50.290Z,11.67
2022-11-03T16:58:23.693Z,11.53
2022-11-03T17:00:57.628Z,11.69
2022-11-03T17:03:28.553Z,11.61
2022-11-03T17:05:59.181Z,11.62
2022-11-03T17:08:51.300Z,11.56
2022-11-03T17:11:46.373Z,11.72
2022-11-03T17:14:17.049Z,11.78
2022-11-03T17:16:50.527Z,11.83
2022-11-03T17:19:22.616Z,11.58
2022-11-03T17:22:02.047Z,11.33
2022-11-03T17:24:35.507Z,11.43
2022-11-03T17:27:28.646Z,11.58
2022-11-03T17:30:05.290Z,11.52
2022-11-03T17:32:42.783Z,11.25
2022-11-03T17:35:39.234Z,11.06
2022-11-03T17:38:22.236Z,11.39
2022-11-03T17:40:57.948Z,11.56
2022-11-03T17:47:15.985Z,11.12
2022-11-03T17:53:40.412Z,10.96
2022-11-03T17:56:38.190Z,10.91
2022-11-03T18:00:03.869Z,10.81
2022-11-03T18:02:53.772Z,10.79
2022-11-03T18:05:59.598Z,10.75
2022-11-03T18:09:08.002Z,10.78
2022-11-03T18:12:35.775Z,10.78
2022-11-03T18:15:34.347Z,10.73
2022-11-03T18:18:44.196Z,10.71
2022-11-03T18:22:36.450Z,10.65
2022-11-03T18:25:24.020Z,10.60
2022-11-03T18:28:39.662Z,10.58
2022-11-03T18:32:01.925Z,10.39
2022-11-03T18:35:32.083Z,10.35
2022-11-03T18:38:46.479Z,10.34
2022-11-03T18:41:54.433Z,10.26
2022-11-03T18:45:10.518Z,10.21
2022-11-03T18:48:50.566Z,10.24
2022-11-03T18:54:37.623Z,10.11
2022-11-03T19:00:57.871Z,10.03
2022-11-03T19:04:14.079Z,10.08
2022-11-03T19:08:27.370Z,10.19
2022-11-03T19:14:46.263Z,10.20
2022-11-03T19:17:40.595Z,10.18
2022-11-03T19:20:45.255Z,10.19
2022-11-03T19:23:59.646Z,10.14
2022-11-03T19:27:43.891Z,10.08
2022-11-03T19:31:11.758Z,9.98
2022-11-03T19:34:46.139Z,10.03
2022-11-03T19:38:24.608Z,10.00
2022-11-03T19:41:57.763Z,9.99
2022-11-03T19:45:01.051Z,9.96
2022-11-03T19:52:11.222Z,10.00
2022-11-03T19:56:28.420Z,10.02
2022-11-03T20:03:31.275Z,10.01
2022-11-03T20:07:06.428Z,9.91
2022-11-03T20:09:50.587Z,9.90
2022-11-03T20:13:25.217Z,9.98
2022-11-03T20:20:26.030Z,10.00
2022-11-03T20:23:56.086Z,10.10
2022-11-03T20:27:40.894Z,10.10
2022-11-03T20:31:30.166Z,10.22
2022-11-03T20:34:56.544Z,10.11
2022-11-03T20:38:16.113Z,10.19
2022-11-03T20:41:49.092Z,10.29
2022-11-03T20:44:51.558Z,10.41
2022-11-03T20:47:29.275Z,10.51
2022-11-03T20:50:02.091Z,10.56
2022-11-03T20:52:39.638Z,10.59
2022-11-03T20:55:43.158Z,10.68
2022-11-03T20:58:38.997Z,10.71
2022-11-03T21:02:00.949Z,10.51
2022-11-03T21:06:18.704Z,10.74
2022-11-03T21:09:32.238Z,10.75
2022-11-03T21:12:36.731Z,10.56
2022-11-03T21:16:26.522Z,10.69
2022-11-03T21:23:54.113Z,10.60
2022-11-03T21:31:58.450Z,10.56
2022-11-03T21:34:41.546Z,10.54
2022-11-03T21:38:42.344Z,10.53
2022-11-03T21:42:21.602Z,10.48
2022-11-03T21:45:42.490Z,10.58
2022-11-03T21:50:15.008Z,10.61
2022-11-03T21:53:41.908Z,10.70
2022-11-03T22:01:23.132Z,10.86
2022-11-03T22:05:14.263Z,10.92
2022-11-03T22:08:18.782Z,10.97
2022-11-03T22:11:27.826Z,11.02
2022-11-03T22:14:17.143Z,11.03
2022-11-03T22:28:32.986Z,11.49
2022-11-03T22:31:38.708Z,11.53
2022-11-03T22:41:07.361Z,11.71
2022-11-03T22:44:52.109Z,11.80
2022-11-03T22:47:36.675Z,11.80
2022-11-03T22:50:41.428Z,11.78
2022-11-03T22:54:38.131Z,11.74
2022-11-03T22:57:08.085Z,11.78
2022-11-03T22:59:39.253Z,11.71
2022-11-03T23:02:37.230Z,11.69
2022-11-03T23:06:03.750Z,11.56
2022-11-03T23:08:48.067Z,11.73
2022-11-03T23:11:46.071Z,11.69
2022-11-03T23:18:02.112Z,11.70
2022-11-03T23:21:09.810Z,11.69
2022-11-03T23:24:30.504Z,11.67
2022-11-03T23:27:02.537Z,11.55
2022-11-03T23:33:21.780Z,11.16
2022-11-03T23:35:55.934Z,11.32
2022-11-03T23:39:08.898Z,11.40
2022-11-03T23:45:38.058Z,11.56
2022-11-03T23:51:39.902Z,11.70
